sensor_id;sensor_type;location;lat;lon;timestamp;P1;durP1;ratioP1;P2;durP2;ratioP2
6809;SDS011;3443;48.812;9.112;2023-12-20T00:01:27;0.70;;;0.70;;
6809;SDS011;3443;48.812;9.112;2023-12-20T00:03:53;0.80;;;0.80;;
6809;SDS011;3443;48.812;9.112;2023-12-20T00:06:19;0.65;;;0.65;;
6809;SDS011;3443;48.812;9.112;2023-12-20T00:08:45;0.70;;;0.70;;
6809;SDS011;3443;48.812;9.112;2023-12-20T00:11:11;0.68;;;0.68;;
6809;SDS011;3443;48.812;9.112;2023-12-20T00:13:37;1.13;;;1.13;;
6809;SDS011;3443;48.812;9.112;2023-12-20T00:16:03;0.85;;;0.85;;
6809;SDS011;3443;48.812;9.112;2023-12-20T00:18:29;0.60;;;0.60;;
6809;SDS011;3443;48.812;9.112;2023-12-20T00:20:55;0.88;;;0.88;;
6809;SDS011;3443;48.812;9.112;2023-12-20T00:23:21;1.20;;;0.93;;
6809;SDS011;3443;48.812;9.112;2023-12-20T00:25:48;0.70;;;0.70;;
6809;SDS011;3443;48.812;9.112;2023-12-20T00:28:14;0.70;;;0.70;;
6809;SDS011;3443;48.812;9.112;2023-12-20T00:30:40;0.73;;;0.73;;
6809;SDS011;3443;48.812;9.112;2023-12-20T00:33:06;0.70;;;0.70;;
6809;SDS011;3443;48.812;9.112;2023-12-20T00:35:32;1.00;;;1.00;;
6809;SDS011;3443;48.812;9.112;2023-12-20T00:37:58;0.90;;;0.90;;
6809;SDS011;3443;48.812;9.112;2023-12-20T00:40:24;0.80;;;0.80;;
6809;SDS011;3443;48.812;9.112;2023-12-20T00:42:50;0.70;;;0.70;;
6809;SDS011;3443;48.812;9.112;2023-12-20T00:45:16;0.70;;;0.70;;
6809;SDS011;3443;48.812;9.112;2023-12-20T00:47:42;0.57;;;0.57;;
6809;SDS011;3443;48.812;9.112;2023-12-20T00:50:08;0.70;;;0.70;;
6809;SDS011;3443;48.812;9.112;2023-12-20T00:52:34;0.90;;;0.90;;
6809;SDS011;3443;48.812;9.112;2023-12-20T00:55:00;1.35;;;0.90;;
6809;SDS011;3443;48.812;9.112;2023-12-20T00:57:26;1.15;;;0.80;;
6809;SDS011;3443;48.812;9.112;2023-12-20T00:59:52;0.70;;;0.70;;
6809;SDS011;3443;48.812;9.112;2023-12-20T01:02:18;0.70;;;0.70;;
6809;SDS011;3443;48.812;9.112;2023-12-20T01:04:44;0.65;;;0.65;;
6809;SDS011;3443;48.812;9.112;2023-12-20T01:07:10;0.93;;;0.60;;
6809;SDS011;3443;48.812;9.112;2023-12-20T01:09:36;1.00;;;1.00;;
6809;SDS011;3443;48.812;9.112;2023-12-20T01:12:02;0.80;;;0.60;;
6809;SDS011;3443;48.812;9.112;2023-12-20T01:14:28;0.73;;;0.73;;
6809;SDS011;3443;48.812;9.112;2023-12-20T01:16:54;0.57;;;0.50;;
6809;SDS011;3443;48.812;9.112;2023-12-20T01:19:20;0.70;;;0.70;;
6809;SDS011;3443;48.812;9.112;2023-12-20T01:21:46;0.70;;;0.70;;
6809;SDS011;3443;48.812;9.112;2023-12-20T01:24:12;1.05;;;1.00;;
6809;SDS011;3443;48.812;9.112;2023-12-20T01:26:38;0.50;;;0.50;;
6809;SDS011;3443;48.812;9.112;2023-12-20T01:29:04;0.77;;;0.77;;
6809;SDS011;3443;48.812;9.112;2023-12-20T01:31:30;0.57;;;0.57;;
6809;SDS011;3443;48.812;9.112;2023-12-20T01:33:56;0.52;;;0.52;;
6809;SDS011;3443;48.812;9.112;2023-12-20T01:36:22;1.20;;;1.20;;
6809;SDS011;3443;48.812;9.112;2023-12-20T01:38:48;1.10;;;1.10;;
6809;SDS011;3443;48.812;9.112;2023-12-20T01:41:14;1.10;;;1.10;;
6809;SDS011;3443;48.812;9.112;2023-12-20T01:43:40;1.23;;;1.23;;
6809;SDS011;3443;48.812;9.112;2023-12-20T01:46:06;1.17;;;1.17;;
6809;SDS011;3443;48.812;9.112;2023-12-20T01:48:32;1.17;;;1.15;;
6809;SDS011;3443;48.812;9.112;2023-12-20T01:51:01;1.30;;;1.20;;
6809;SDS011;3443;48.812;9.112;2023-12-20T01:53:28;1.20;;;1.20;;
6809;SDS011;3443;48.812;9.112;2023-12-20T01:55:55;1.60;;;1.50;;
6809;SDS011;3443;48.812;9.112;2023-12-20T01:58:21;1.70;;;1.70;;
6809;SDS011;3443;48.812;9.112;2023-12-20T02:00:47;1.45;;;1.35;;
6809;SDS011;3443;48.812;9.112;2023-12-20T02:03:13;1.85;;;1.60;;
6809;SDS011;3443;48.812;9.112;2023-12-20T02:05:39;3.00;;;2.70;;
6809;SDS011;3443;48.812;9.112;2023-12-20T02:08:06;2.78;;;2.53;;
6809;SDS011;3443;48.812;9.112;2023-12-20T02:10:32;1.40;;;1.40;;
6809;SDS011;3443;48.812;9.112;2023-12-20T02:12:58;1.48;;;1.48;;
6809;SDS011;3443;48.812;9.112;2023-12-20T02:15:24;1.33;;;1.33;;
6809;SDS011;3443;48.812;9.112;2023-12-20T02:17:50;1.60;;;1.38;;
6809;SDS011;3443;48.812;9.112;2023-12-20T02:20:16;1.27;;;1.15;;
6809;SDS011;3443;48.812;9.112;2023-12-20T02:22:42;1.17;;;1.13;;
6809;SDS011;3443;48.812;9.112;2023-12-20T02:25:08;1.80;;;1.70;;
6809;SDS011;3443;48.812;9.112;2023-12-20T02:27:34;1.90;;;1.80;;
6809;SDS011;3443;48.812;9.112;2023-12-20T02:30:01;1.65;;;1.63;;
6809;SDS011;3443;48.812;9.112;2023-12-20T02:32:28;2.22;;;2.13;;
6809;SDS011;3443;48.812;9.112;2023-12-20T02:34:54;2.58;;;2.38;;
6809;SDS011;3443;48.812;9.112;2023-12-20T02:37:21;2.17;;;2.08;;
6809;SDS011;3443;48.812;9.112;2023-12-20T02:39:47;1.60;;;1.50;;
6809;SDS011;3443;48.812;9.112;2023-12-20T02:42:13;2.20;;;2.10;;
6809;SDS011;3443;48.812;9.112;2023-12-20T02:44:39;1.90;;;1.90;;
6809;SDS011;3443;48.812;9.112;2023-12-20T02:47:05;4.22;;;3.85;;
6809;SDS011;3443;48.812;9.112;2023-12-20T02:49:31;3.30;;;3.10;;
6809;SDS011;3443;48.812;9.112;2023-12-20T02:51:57;1.90;;;1.80;;
6809;SDS011;3443;48.812;9.112;2023-12-20T02:54:23;1.52;;;0.60;;
6809;SDS011;3443;48.812;9.112;2023-12-20T02:56:49;0.30;;;0.30;;
6809;SDS011;3443;48.812;9.112;2023-12-20T02:59:15;0.30;;;0.20;;
6809;SDS011;3443;48.812;9.112;2023-12-20T03:01:44;0.10;;;0.10;;
6809;SDS011;3443;48.812;9.112;2023-12-20T03:04:11;0.60;;;0.20;;
6809;SDS011;3443;48.812;9.112;2023-12-20T03:06:37;0.20;;;0.20;;
6809;SDS011;3443;48.812;9.112;2023-12-20T03:09:03;0.20;;;0.20;;
6809;SDS011;3443;48.812;9.112;2023-12-20T03:11:29;0.10;;;0.10;;
6809;SDS011;3443;48.812;9.112;2023-12-20T03:13:55;0.20;;;0.20;;
6809;SDS011;3443;48.812;9.112;2023-12-20T03:16:21;0.13;;;0.13;;
6809;SDS011;3443;48.812;9.112;2023-12-20T03:18:47;0.10;;;0.10;;
6809;SDS011;3443;48.812;9.112;2023-12-20T03:21:13;0.95;;;0.10;;
6809;SDS011;3443;48.812;9.112;2023-12-20T03:23:39;0.10;;;0.10;;
6809;SDS011;3443;48.812;9.112;2023-12-20T03:26:09;0.15;;;0.15;;
6809;SDS011;3443;48.812;9.112;2023-12-20T03:28:35;0.40;;;0.10;;
6809;SDS011;3443;48.812;9.112;2023-12-20T03:31:02;0.55;;;0.10;;
6809;SDS011;3443;48.812;9.112;2023-12-20T03:33:28;0.20;;;0.20;;
6809;SDS011;3443;48.812;9.112;2023-12-20T03:35:54;0.20;;;0.10;;
6809;SDS011;3443;48.812;9.112;2023-12-20T03:38:20;0.90;;;0.15;;
6809;SDS011;3443;48.812;9.112;2023-12-20T03:40:46;0.30;;;0.10;;
6809;SDS011;3443;48.812;9.112;2023-12-20T03:43:12;0.10;;;0.10;;
6809;SDS011;3443;48.812;9.112;2023-12-20T03:45:38;0.25;;;0.10;;
6809;SDS011;3443;48.812;9.112;2023-12-20T03:48:04;0.73;;;0.10;;
6809;SDS011;3443;48.812;9.112;2023-12-20T03:50:31;0.10;;;0.10;;
6809;SDS011;3443;48.812;9.112;2023-12-20T03:52:57;0.10;;;0.10;;
6809;SDS011;3443;48.812;9.112;2023-12-20T03:55:23;0.20;;;0.10;;
6809;SDS011;3443;48.812;9.112;2023-12-20T03:57:48;0.10;;;0.10;;
6809;SDS011;3443;48.812;9.112;2023-12-20T04:00:15;0.10;;;0.10;;
6809;SDS011;3443;48.812;9.112;2023-12-20T04:02:41;0.10;;;0.10;;
6809;SDS011;3443;48.812;9.112;2023-12-20T04:05:07;0.10;;;0.10;;
6809;SDS011;3443;48.812;9.112;2023-12-20T04:07:34;0.10;;;0.10;;
6809;SDS011;3443;48.812;9.112;2023-12-20T04:10:00;0.10;;;0.10;;
6809;SDS011;3443;48.812;9.112;2023-12-20T04:12:27;0.20;;;0.10;;
6809;SDS011;3443;48.812;9.112;2023-12-20T04:14:53;0.10;;;0.10;;
6809;SDS011;3443;48.812;9.112;2023-12-20T04:17:19;0.10;;;0.10;;
6809;SDS011;3443;48.812;9.112;2023-12-20T04:19:47;0.10;;;0.10;;
6809;SDS011;3443;48.812;9.112;2023-12-20T04:22:13;0.10;;;0.10;;
6809;SDS011;3443;48.812;9.112;2023-12-20T04:24:39;0.85;;;0.10;;
6809;SDS011;3443;48.812;9.112;2023-12-20T04:27:07;0.10;;;0.10;;
6809;SDS011;3443;48.812;9.112;2023-12-20T04:29:33;0.20;;;0.10;;
6809;SDS011;3443;48.812;9.112;2023-12-20T04:31:59;0.10;;;0.10;;
6809;SDS011;3443;48.812;9.112;2023-12-20T04:34:25;0.10;;;0.10;;
6809;SDS011;3443;48.812;9.112;2023-12-20T04:36:51;0.20;;;0.10;;
6809;SDS011;3443;48.812;9.112;2023-12-20T04:39:17;0.30;;;0.10;;
6809;SDS011;3443;48.812;9.112;2023-12-20T04:41:43;0.10;;;0.10;;
6809;SDS011;3443;48.812;9.112;2023-12-20T04:44:09;0.30;;;0.10;;
6809;SDS011;3443;48.812;9.112;2023-12-20T04:46:35;0.10;;;0.10;;
6809;SDS011;3443;48.812;9.112;2023-12-20T04:49:01;0.10;;;0.10;;
6809;SDS011;3443;48.812;9.112;2023-12-20T04:51:27;0.20;;;0.20;;
6809;SDS011;3443;48.812;9.112;2023-12-20T04:53:53;0.10;;;0.10;;
6809;SDS011;3443;48.812;9.112;2023-12-20T04:56:19;0.32;;;0.20;;
6809;SDS011;3443;48.812;9.112;2023-12-20T04:58:45;0.10;;;0.10;;
6809;SDS011;3443;48.812;9.112;2023-12-20T05:01:13;1.33;;;0.10;;
6809;SDS011;3443;48.812;9.112;2023-12-20T05:03:39;0.10;;;0.10;;
6809;SDS011;3443;48.812;9.112;2023-12-20T05:06:05;0.20;;;0.10;;
6809;SDS011;3443;48.812;9.112;2023-12-20T05:08:31;0.10;;;0.10;;
6809;SDS011;3443;48.812;9.112;2023-12-20T05:10:57;0.10;;;0.10;;
6809;SDS011;3443;48.812;9.112;2023-12-20T05:13:23;0.20;;;0.20;;
6809;SDS011;3443;48.812;9.112;2023-12-20T05:15:49;0.10;;;0.10;;
6809;SDS011;3443;48.812;9.112;2023-12-20T05:18:16;0.17;;;0.17;;
6809;SDS011;3443;48.812;9.112;2023-12-20T05:20:42;0.30;;;0.10;;
6809;SDS011;3443;48.812;9.112;2023-12-20T05:23:08;0.10;;;0.10;;
6809;SDS011;3443;48.812;9.112;2023-12-20T05:25:33;0.10;;;0.10;;
6809;SDS011;3443;48.812;9.112;2023-12-20T05:28:00;0.10;;;0.10;;
6809;SDS011;3443;48.812;9.112;2023-12-20T05:30:26;0.38;;;0.20;;
6809;SDS011;3443;48.812;9.112;2023-12-20T05:32:52;0.10;;;0.10;;
6809;SDS011;3443;48.812;9.112;2023-12-20T05:35:18;0.32;;;0.15;;
6809;SDS011;3443;48.812;9.112;2023-12-20T05:37:44;0.10;;;0.10;;
6809;SDS011;3443;48.812;9.112;2023-12-20T05:40:10;0.28;;;0.10;;
6809;SDS011;3443;48.812;9.112;2023-12-20T05:42:37;0.20;;;0.20;;
6809;SDS011;3443;48.812;9.112;2023-12-20T05:45:04;0.40;;;0.17;;
6809;SDS011;3443;48.812;9.112;2023-12-20T05:47:31;0.20;;;0.20;;
6809;SDS011;3443;48.812;9.112;2023-12-20T05:50:00;0.20;;;0.20;;
6809;SDS011;3443;48.812;9.112;2023-12-20T05:52:26;0.20;;;0.20;;
6809;SDS011;3443;48.812;9.112;2023-12-20T05:54:52;0.20;;;0.20;;
6809;SDS011;3443;48.812;9.112;2023-12-20T05:57:18;0.30;;;0.30;;
6809;SDS011;3443;48.812;9.112;2023-12-20T05:59:44;0.88;;;0.40;;
6809;SDS011;3443;48.812;9.112;2023-12-20T06:02:10;0.30;;;0.30;;
6809;SDS011;3443;48.812;9.112;2023-12-20T06:04:36;0.68;;;0.40;;
6809;SDS011;3443;48.812;9.112;2023-12-20T06:07:02;0.30;;;0.30;;
6809;SDS011;3443;48.812;9.112;2023-12-20T06:09:28;0.50;;;0.50;;
6809;SDS011;3443;48.812;9.112;2023-12-20T06:14:49;0.40;;;0.40;;
6809;SDS011;3443;48.812;9.112;2023-12-20T06:17:15;0.35;;;0.35;;
6809;SDS011;3443;48.812;9.112;2023-12-20T06:19:41;0.45;;;0.40;;
6809;SDS011;3443;48.812;9.112;2023-12-20T06:22:09;0.43;;;0.43;;
6809;SDS011;3443;48.812;9.112;2023-12-20T06:24:36;0.40;;;0.40;;
6809;SDS011;3443;48.812;9.112;2023-12-20T06:27:02;0.57;;;0.50;;
6809;SDS011;3443;48.812;9.112;2023-12-20T06:29:28;1.13;;;0.40;;
6809;SDS011;3443;48.812;9.112;2023-12-20T06:31:53;0.40;;;0.40;;
6809;SDS011;3443;48.812;9.112;2023-12-20T06:34:19;1.98;;;0.30;;
6809;SDS011;3443;48.812;9.112;2023-12-20T06:36:45;0.40;;;0.40;;
6809;SDS011;3443;48.812;9.112;2023-12-20T06:39:11;0.40;;;0.40;;
6809;SDS011;3443;48.812;9.112;2023-12-20T06:41:38;0.40;;;0.40;;
6809;SDS011;3443;48.812;9.112;2023-12-20T06:44:05;0.65;;;0.40;;
6809;SDS011;3443;48.812;9.112;2023-12-20T06:46:31;0.35;;;0.35;;
6809;SDS011;3443;48.812;9.112;2023-12-20T06:48:57;0.45;;;0.30;;
6809;SDS011;3443;48.812;9.112;2023-12-20T06:51:23;0.93;;;0.35;;
6809;SDS011;3443;48.812;9.112;2023-12-20T06:53:51;0.95;;;0.40;;
6809;SDS011;3443;48.812;9.112;2023-12-20T06:56:17;0.50;;;0.50;;
6809;SDS011;3443;48.812;9.112;2023-12-20T06:58:43;0.40;;;0.40;;
6809;SDS011;3443;48.812;9.112;2023-12-20T07:01:15;0.50;;;0.50;;
6809;SDS011;3443;48.812;9.112;2023-12-20T07:03:41;0.70;;;0.70;;
6809;SDS011;3443;48.812;9.112;2023-12-20T07:06:07;0.85;;;0.85;;
6809;SDS011;3443;48.812;9.112;2023-12-20T07:11:09;1.75;;;1.75;;
6809;SDS011;3443;48.812;9.112;2023-12-20T07:13:35;1.73;;;1.73;;
6809;SDS011;3443;48.812;9.112;2023-12-20T07:16:00;1.98;;;1.90;;
6809;SDS011;3443;48.812;9.112;2023-12-20T07:18:26;2.15;;;2.15;;
6809;SDS011;3443;48.812;9.112;2023-12-20T07:20:52;2.13;;;2.03;;
6809;SDS011;3443;48.812;9.112;2023-12-20T07:23:19;2.30;;;2.20;;
6809;SDS011;3443;48.812;9.112;2023-12-20T07:25:45;1.98;;;1.92;;
6809;SDS011;3443;48.812;9.112;2023-12-20T07:28:11;1.58;;;1.58;;
6809;SDS011;3443;48.812;9.112;2023-12-20T07:30:43;1.42;;;1.33;;
6809;SDS011;3443;48.812;9.112;2023-12-20T07:33:09;1.30;;;1.30;;
6809;SDS011;3443;48.812;9.112;2023-12-20T07:35:37;1.38;;;1.38;;
6809;SDS011;3443;48.812;9.112;2023-12-20T07:38:03;1.40;;;1.35;;
6809;SDS011;3443;48.812;9.112;2023-12-20T07:40:29;1.67;;;1.58;;
6809;SDS011;3443;48.812;9.112;2023-12-20T07:42:55;1.52;;;1.42;;
6809;SDS011;3443;48.812;9.112;2023-12-20T07:45:21;1.70;;;1.70;;
6809;SDS011;3443;48.812;9.112;2023-12-20T07:47:47;1.50;;;1.50;;
6809;SDS011;3443;48.812;9.112;2023-12-20T07:50:14;1.48;;;1.48;;
6809;SDS011;3443;48.812;9.112;2023-12-20T07:52:40;1.88;;;1.77;;
6809;SDS011;3443;48.812;9.112;2023-12-20T07:55:06;1.90;;;1.80;;
6809;SDS011;3443;48.812;9.112;2023-12-20T07:57:32;1.83;;;1.73;;
6809;SDS011;3443;48.812;9.112;2023-12-20T07:59:58;2.03;;;2.00;;
6809;SDS011;3443;48.812;9.112;2023-12-20T08:02:24;1.95;;;1.85;;
6809;SDS011;3443;48.812;9.112;2023-12-20T08:04:50;1.73;;;1.73;;
6809;SDS011;3443;48.812;9.112;2023-12-20T08:07:16;2.20;;;1.98;;
6809;SDS011;3443;48.812;9.112;2023-12-20T08:09:42;1.90;;;1.80;;
6809;SDS011;3443;48.812;9.112;2023-12-20T08:12:08;2.05;;;2.05;;
6809;SDS011;3443;48.812;9.112;2023-12-20T08:14:34;1.60;;;1.58;;
6809;SDS011;3443;48.812;9.112;2023-12-20T08:17:00;1.92;;;1.80;;
6809;SDS011;3443;48.812;9.112;2023-12-20T08:19:26;2.13;;;2.08;;
6809;SDS011;3443;48.812;9.112;2023-12-20T08:21:52;2.42;;;2.22;;
6809;SDS011;3443;48.812;9.112;2023-12-20T08:24:18;2.17;;;2.03;;
6809;SDS011;3443;48.812;9.112;2023-12-20T08:26:44;3.05;;;2.03;;
6809;SDS011;3443;48.812;9.112;2023-12-20T08:29:12;2.35;;;2.15;;
6809;SDS011;3443;48.812;9.112;2023-12-20T08:31:38;2.13;;;2.00;;
6809;SDS011;3443;48.812;9.112;2023-12-20T08:34:04;2.10;;;2.00;;
6809;SDS011;3443;48.812;9.112;2023-12-20T08:36:30;2.42;;;2.30;;
6809;SDS011;3443;48.812;9.112;2023-12-20T08:38:56;2.40;;;2.30;;
6809;SDS011;3443;48.812;9.112;2023-12-20T08:41:22;1.92;;;1.90;;
6809;SDS011;3443;48.812;9.112;2023-12-20T08:43:48;2.30;;;1.95;;
6809;SDS011;3443;48.812;9.112;2023-12-20T08:46:14;2.30;;;2.10;;
6809;SDS011;3443;48.812;9.112;2023-12-20T08:48:40;2.03;;;1.88;;
6809;SDS011;3443;48.812;9.112;2023-12-20T08:51:06;2.03;;;1.60;;
6809;SDS011;3443;48.812;9.112;2023-12-20T08:53:33;2.08;;;1.90;;
6809;SDS011;3443;48.812;9.112;2023-12-20T08:55:59;1.85;;;1.75;;
6809;SDS011;3443;48.812;9.112;2023-12-20T08:58:26;3.33;;;1.77;;
6809;SDS011;3443;48.812;9.112;2023-12-20T09:00:52;1.98;;;1.88;;
6809;SDS011;3443;48.812;9.112;2023-12-20T09:03:18;1.90;;;1.90;;
6809;SDS011;3443;48.812;9.112;2023-12-20T09:05:56;2.08;;;2.00;;
6809;SDS011;3443;48.812;9.112;2023-12-20T09:08:22;2.35;;;2.17;;
6809;SDS011;3443;48.812;9.112;2023-12-20T09:10:48;1.95;;;1.92;;
6809;SDS011;3443;48.812;9.112;2023-12-20T09:13:14;1.80;;;1.70;;
6809;SDS011;3443;48.812;9.112;2023-12-20T09:15:40;2.13;;;1.88;;
6809;SDS011;3443;48.812;9.112;2023-12-20T09:18:06;2.25;;;1.75;;
6809;SDS011;3443;48.812;9.112;2023-12-20T09:20:33;2.80;;;2.60;;
6809;SDS011;3443;48.812;9.112;2023-12-20T09:22:59;1.85;;;1.70;;
6809;SDS011;3443;48.812;9.112;2023-12-20T09:25:25;1.98;;;1.83;;
6809;SDS011;3443;48.812;9.112;2023-12-20T09:27:51;2.30;;;2.10;;
6809;SDS011;3443;48.812;9.112;2023-12-20T09:30:18;3.17;;;2.00;;
6809;SDS011;3443;48.812;9.112;2023-12-20T09:32:44;1.48;;;1.38;;
6809;SDS011;3443;48.812;9.112;2023-12-20T09:35:10;3.15;;;1.40;;
6809;SDS011;3443;48.812;9.112;2023-12-20T09:37:36;2.20;;;1.50;;
6809;SDS011;3443;48.812;9.112;2023-12-20T09:40:03;1.75;;;1.20;;
6809;SDS011;3443;48.812;9.112;2023-12-20T09:45:27;2.53;;;1.08;;
6809;SDS011;3443;48.812;9.112;2023-12-20T09:47:53;1.13;;;0.85;;
6809;SDS011;3443;48.812;9.112;2023-12-20T09:50:20;3.67;;;1.05;;
6809;SDS011;3443;48.812;9.112;2023-12-20T09:52:50;3.78;;;1.05;;
6809;SDS011;3443;48.812;9.112;2023-12-20T09:55:19;2.20;;;1.05;;
6809;SDS011;3443;48.812;9.112;2023-12-20T09:57:46;5.07;;;1.20;;
6809;SDS011;3443;48.812;9.112;2023-12-20T10:00:12;2.30;;;1.00;;
6809;SDS011;3443;48.812;9.112;2023-12-20T10:02:39;3.13;;;0.90;;
6809;SDS011;3443;48.812;9.112;2023-12-20T10:05:06;2.30;;;1.27;;
6809;SDS011;3443;48.812;9.112;2023-12-20T10:07:34;4.25;;;1.10;;
6809;SDS011;3443;48.812;9.112;2023-12-20T10:10:00;3.30;;;1.02;;
6809;SDS011;3443;48.812;9.112;2023-12-20T10:12:27;4.82;;;1.00;;
6809;SDS011;3443;48.812;9.112;2023-12-20T10:14:53;1.92;;;0.85;;
6809;SDS011;3443;48.812;9.112;2023-12-20T10:17:19;1.40;;;1.10;;
6809;SDS011;3443;48.812;9.112;2023-12-20T10:19:47;5.88;;;1.23;;
6809;SDS011;3443;48.812;9.112;2023-12-20T10:22:13;3.85;;;0.90;;
6809;SDS011;3443;48.812;9.112;2023-12-20T10:24:39;1.38;;;1.02;;
6809;SDS011;3443;48.812;9.112;2023-12-20T10:27:07;3.70;;;1.02;;
6809;SDS011;3443;48.812;9.112;2023-12-20T10:29:33;4.13;;;1.83;;
6809;SDS011;3443;48.812;9.112;2023-12-20T10:32:00;3.78;;;1.67;;
6809;SDS011;3443;48.812;9.112;2023-12-20T10:34:28;4.55;;;2.40;;
6809;SDS011;3443;48.812;9.112;2023-12-20T10:36:54;8.57;;;5.03;;
6809;SDS011;3443;48.812;9.112;2023-12-20T10:39:20;1.55;;;1.10;;
6809;SDS011;3443;48.812;9.112;2023-12-20T10:41:46;2.72;;;1.13;;
6809;SDS011;3443;48.812;9.112;2023-12-20T10:44:13;1.95;;;1.30;;
6809;SDS011;3443;48.812;9.112;2023-12-20T10:46:39;3.10;;;1.27;;
6809;SDS011;3443;48.812;9.112;2023-12-20T10:49:05;4.38;;;1.77;;
6809;SDS011;3443;48.812;9.112;2023-12-20T10:51:32;5.55;;;1.88;;
6809;SDS011;3443;48.812;9.112;2023-12-20T10:54:00;2.63;;;1.15;;
6809;SDS011;3443;48.812;9.112;2023-12-20T10:56:26;3.55;;;1.90;;
6809;SDS011;3443;48.812;9.112;2023-12-20T10:58:55;3.75;;;1.80;;
6809;SDS011;3443;48.812;9.112;2023-12-20T11:01:22;1.50;;;0.98;;
6809;SDS011;3443;48.812;9.112;2023-12-20T11:03:50;1.80;;;1.08;;
6809;SDS011;3443;48.812;9.112;2023-12-20T11:06:23;2.97;;;1.33;;
6809;SDS011;3443;48.812;9.112;2023-12-20T11:08:55;1.75;;;1.10;;
6809;SDS011;3443;48.812;9.112;2023-12-20T11:11:35;2.03;;;1.00;;
6809;SDS011;3443;48.812;9.112;2023-12-20T11:14:03;3.95;;;0.75;;
6809;SDS011;3443;48.812;9.112;2023-12-20T11:16:31;2.65;;;1.63;;
6809;SDS011;3443;48.812;9.112;2023-12-20T11:18:57;3.38;;;1.10;;
6809;SDS011;3443;48.812;9.112;2023-12-20T11:21:23;3.90;;;1.42;;
6809;SDS011;3443;48.812;9.112;2023-12-20T11:23:50;4.88;;;1.40;;
6809;SDS011;3443;48.812;9.112;2023-12-20T11:26:16;4.28;;;1.05;;
6809;SDS011;3443;48.812;9.112;2023-12-20T11:28:42;2.03;;;1.15;;
6809;SDS011;3443;48.812;9.112;2023-12-20T11:31:08;2.53;;;1.10;;
6809;SDS011;3443;48.812;9.112;2023-12-20T11:33:36;2.58;;;1.20;;
6809;SDS011;3443;48.812;9.112;2023-12-20T11:36:03;4.00;;;1.30;;
6809;SDS011;3443;48.812;9.112;2023-12-20T11:38:39;3.28;;;1.20;;
6809;SDS011;3443;48.812;9.112;2023-12-20T11:41:16;3.88;;;1.27;;
6809;SDS011;3443;48.812;9.112;2023-12-20T11:43:42;1.67;;;1.30;;
6809;SDS011;3443;48.812;9.112;2023-12-20T11:46:08;3.13;;;1.15;;
6809;SDS011;3443;48.812;9.112;2023-12-20T11:48:37;4.60;;;1.20;;
6809;SDS011;3443;48.812;9.112;2023-12-20T11:51:13;4.20;;;1.05;;
6809;SDS011;3443;48.812;9.112;2023-12-20T11:53:40;6.18;;;1.77;;
6809;SDS011;3443;48.812;9.112;2023-12-20T11:56:07;6.30;;;1.60;;
6809;SDS011;3443;48.812;9.112;2023-12-20T11:58:33;5.50;;;1.60;;
6809;SDS011;3443;48.812;9.112;2023-12-20T12:01:00;2.85;;;1.40;;
6809;SDS011;3443;48.812;9.112;2023-12-20T12:03:27;6.00;;;2.05;;
6809;SDS011;3443;48.812;9.112;2023-12-20T12:05:53;4.45;;;1.80;;
6809;SDS011;3443;48.812;9.112;2023-12-20T12:08:19;6.60;;;2.15;;
6809;SDS011;3443;48.812;9.112;2023-12-20T12:10:45;4.15;;;2.05;;
6809;SDS011;3443;48.812;9.112;2023-12-20T12:13:11;2.65;;;1.50;;
6809;SDS011;3443;48.812;9.112;2023-12-20T12:15:39;3.88;;;1.48;;
6809;SDS011;3443;48.812;9.112;2023-12-20T12:18:07;3.95;;;1.50;;
6809;SDS011;3443;48.812;9.112;2023-12-20T12:20:33;4.22;;;1.33;;
6809;SDS011;3443;48.812;9.112;2023-12-20T12:23:00;4.00;;;1.65;;
6809;SDS011;3443;48.812;9.112;2023-12-20T12:25:26;4.70;;;1.00;;
6809;SDS011;3443;48.812;9.112;2023-12-20T12:27:52;5.18;;;2.13;;
6809;SDS011;3443;48.812;9.112;2023-12-20T12:30:18;4.45;;;2.03;;
6809;SDS011;3443;48.812;9.112;2023-12-20T12:32:44;2.40;;;1.48;;
6809;SDS011;3443;48.812;9.112;2023-12-20T12:35:10;3.28;;;1.58;;
6809;SDS011;3443;48.812;9.112;2023-12-20T12:37:37;4.65;;;1.40;;
6809;SDS011;3443;48.812;9.112;2023-12-20T12:40:05;4.00;;;1.58;;
6809;SDS011;3443;48.812;9.112;2023-12-20T12:42:31;4.85;;;2.13;;
6809;SDS011;3443;48.812;9.112;2023-12-20T12:44:57;2.50;;;2.00;;
6809;SDS011;3443;48.812;9.112;2023-12-20T12:47:23;3.50;;;1.75;;
6809;SDS011;3443;48.812;9.112;2023-12-20T12:49:50;5.43;;;2.80;;
6809;SDS011;3443;48.812;9.112;2023-12-20T12:52:18;4.18;;;2.85;;
6809;SDS011;3443;48.812;9.112;2023-12-20T12:54:44;5.43;;;1.20;;
6809;SDS011;3443;48.812;9.112;2023-12-20T12:57:10;2.33;;;1.30;;
6809;SDS011;3443;48.812;9.112;2023-12-20T12:59:36;3.35;;;1.48;;
6809;SDS011;3443;48.812;9.112;2023-12-20T13:02:02;2.25;;;1.80;;
6809;SDS011;3443;48.812;9.112;2023-12-20T13:04:28;2.10;;;0.88;;
6809;SDS011;3443;48.812;9.112;2023-12-20T13:06:54;4.35;;;1.45;;
6809;SDS011;3443;48.812;9.112;2023-12-20T13:09:22;2.15;;;1.27;;
6809;SDS011;3443;48.812;9.112;2023-12-20T13:11:48;2.63;;;1.05;;
6809;SDS011;3443;48.812;9.112;2023-12-20T13:14:14;3.67;;;1.10;;
6809;SDS011;3443;48.812;9.112;2023-12-20T13:16:41;3.88;;;0.98;;
6809;SDS011;3443;48.812;9.112;2023-12-20T13:19:07;3.38;;;1.50;;
6809;SDS011;3443;48.812;9.112;2023-12-20T13:21:34;2.08;;;1.48;;
6809;SDS011;3443;48.812;9.112;2023-12-20T13:24:00;15.20;;;4.47;;
6809;SDS011;3443;48.812;9.112;2023-12-20T13:26:26;9.40;;;2.33;;
6809;SDS011;3443;48.812;9.112;2023-12-20T13:28:53;7.40;;;2.15;;
6809;SDS011;3443;48.812;9.112;2023-12-20T13:31:20;5.30;;;2.33;;
6809;SDS011;3443;48.812;9.112;2023-12-20T13:33:46;2.97;;;1.10;;
6809;SDS011;3443;48.812;9.112;2023-12-20T13:36:12;6.65;;;2.65;;
6809;SDS011;3443;48.812;9.112;2023-12-20T13:38:38;8.10;;;3.10;;
6809;SDS011;3443;48.812;9.112;2023-12-20T13:41:04;5.22;;;1.40;;
6809;SDS011;3443;48.812;9.112;2023-12-20T13:43:31;4.07;;;2.03;;
6809;SDS011;3443;48.812;9.112;2023-12-20T13:45:57;4.30;;;1.85;;
6809;SDS011;3443;48.812;9.112;2023-12-20T13:48:23;3.17;;;1.15;;
6809;SDS011;3443;48.812;9.112;2023-12-20T13:50:49;1.98;;;1.80;;
6809;SDS011;3443;48.812;9.112;2023-12-20T13:53:15;1.98;;;1.17;;
6809;SDS011;3443;48.812;9.112;2023-12-20T13:55:41;2.20;;;1.27;;
6809;SDS011;3443;48.812;9.112;2023-12-20T13:58:07;4.72;;;1.20;;
6809;SDS011;3443;48.812;9.112;2023-12-20T14:00:35;3.33;;;1.65;;
6809;SDS011;3443;48.812;9.112;2023-12-20T14:03:01;5.03;;;1.30;;
6809;SDS011;3443;48.812;9.112;2023-12-20T14:05:27;3.60;;;1.35;;
6809;SDS011;3443;48.812;9.112;2023-12-20T14:07:53;3.17;;;1.30;;
6809;SDS011;3443;48.812;9.112;2023-12-20T14:10:19;1.95;;;1.20;;
6809;SDS011;3443;48.812;9.112;2023-12-20T14:12:45;2.13;;;1.70;;
6809;SDS011;3443;48.812;9.112;2023-12-20T14:15:11;5.00;;;1.60;;
6809;SDS011;3443;48.812;9.112;2023-12-20T14:17:38;4.95;;;1.42;;
6809;SDS011;3443;48.812;9.112;2023-12-20T14:20:06;3.08;;;1.50;;
6809;SDS011;3443;48.812;9.112;2023-12-20T14:22:32;4.00;;;1.38;;
6809;SDS011;3443;48.812;9.112;2023-12-20T14:24:58;3.38;;;1.00;;
6809;SDS011;3443;48.812;9.112;2023-12-20T14:27:24;4.28;;;1.15;;
6809;SDS011;3443;48.812;9.112;2023-12-20T14:29:53;1.25;;;1.10;;
6809;SDS011;3443;48.812;9.112;2023-12-20T14:32:19;2.35;;;1.70;;
6809;SDS011;3443;48.812;9.112;2023-12-20T14:34:45;5.82;;;1.58;;
6809;SDS011;3443;48.812;9.112;2023-12-20T14:37:11;3.75;;;1.73;;
6809;SDS011;3443;48.812;9.112;2023-12-20T14:39:37;4.40;;;1.38;;
6809;SDS011;3443;48.812;9.112;2023-12-20T14:42:09;3.60;;;1.60;;
6809;SDS011;3443;48.812;9.112;2023-12-20T14:44:38;5.20;;;1.60;;
6809;SDS011;3443;48.812;9.112;2023-12-20T14:47:04;4.05;;;3.58;;
6809;SDS011;3443;48.812;9.112;2023-12-20T14:49:30;1.60;;;1.50;;
6809;SDS011;3443;48.812;9.112;2023-12-20T14:51:56;2.90;;;1.23;;
6809;SDS011;3443;48.812;9.112;2023-12-20T14:54:23;4.50;;;1.60;;
6809;SDS011;3443;48.812;9.112;2023-12-20T14:56:49;4.90;;;1.35;;
6809;SDS011;3443;48.812;9.112;2023-12-20T14:59:15;3.17;;;1.55;;
6809;SDS011;3443;48.812;9.112;2023-12-20T15:01:41;1.45;;;0.77;;
6809;SDS011;3443;48.812;9.112;2023-12-20T15:04:08;2.38;;;1.30;;
6809;SDS011;3443;48.812;9.112;2023-12-20T15:06:34;2.45;;;1.27;;
6809;SDS011;3443;48.812;9.112;2023-12-20T15:09:00;5.88;;;1.38;;
6809;SDS011;3443;48.812;9.112;2023-12-20T15:11:27;3.30;;;1.10;;
6809;SDS011;3443;48.812;9.112;2023-12-20T15:13:53;2.42;;;1.15;;
6809;SDS011;3443;48.812;9.112;2023-12-20T15:16:23;4.65;;;1.17;;
6809;SDS011;3443;48.812;9.112;2023-12-20T15:18:49;4.07;;;1.13;;